Genco Loire — V7GN8 — position and weather

sailwx.info

Track history (hours):
 
Tides and Currents Weather Stations Pressure Air Temp Water Temp Dewpoint Dewpoint Depression Visibility Wind Speed Wind Dir Waves Ship Positions

Genco Loire

Last reported at 2017-Mar-13 23:33 UTC. Time now 2017-Mar-23 18:29 UTC.
Position N 36°20' W 029°22'.
Warning: this ship's position is 9 days out of date.

Length 190 m; draft 10.4 m.

MMSI: 538002760.

Date/timePositionNaut miles runAvg speedWind from/ knotsBaromVisibWave heightAir tempDewpointWater temp
2017-Mar-13 23:33N 36°20' W 029°22'1110.5
2017-Mar-13 22:32N 36°19' W 029°09'1010.2
2017-Mar-13 21:33N 36°19' W 028°56'1310.3
2017-Mar-13 20:20N 36°19' W 028°41'810.6
2017-Mar-13 19:33N 36°18' W 028°30'1110.7
2017-Mar-13 18:32N 36°18' W 028°17'1111.0
2017-Mar-13 17:31N 36°17' W 028°03'1010.6
2017-Mar-13 16:33N 36°17' W 027°50'1110.7
2017-Mar-13 15:33N 36°16' W 027°37'1110.6
2017-Mar-13 14:33N 36°16' W 027°24'1110.8
2017-Mar-13 13:33N 36°16' W 027°11'1010.5
2017-Mar-13 12:33N 36°15' W 026°58'1110.7
2017-Mar-13 11:32N 36°15' W 026°44'1110.7
2017-Mar-13 10:32N 36°14' W 026°31'1010.6
2017-Mar-13 09:34N 36°14' W 026°18'1110.7
2017-Mar-13 08:33N 36°13' W 026°05'1110.9
2017-Mar-13 07:33N 36°13' W 025°51'1111.0
2017-Mar-13 06:33N 36°12' W 025°38'1111.0
2017-Mar-13 05:34N 36°12' W 025°24'1111.2
2017-Mar-13 04:33N 36°11' W 025°10'1110.9
2017-Mar-13 03:33N 36°11' W 024°57'1110.9
2017-Mar-13 02:33N 36°11' W 024°43'1110.8
2017-Mar-13 01:33N 36°11' W 024°30'1110.6
2017-Mar-13 00:33N 36°11' W 024°17'1010.4
2017-Mar-12 23:33N 36°11' W 024°04'1110.6
2017-Mar-12 22:33N 36°10' W 023°51'1110.9
2017-Mar-12 21:33N 36°10' W 023°37'1110.9
2017-Mar-12 20:33N 36°10' W 023°23'1110.7
2017-Mar-12 19:33N 36°10' W 023°10'1010.5
2017-Mar-12 18:33N 36°10' W 022°57'1410.0
2017-Mar-12 17:13N 36°09' W 022°41'4110.6
2017-Mar-12 13:21N 36°09' W 021°50'45910.9
2017-Mar-10 19:15N 36°01' W 012°22'811.0
2017-Mar-10 18:33N 36°02' W 012°13'1111.4
2017-Mar-10 17:34N 36°02' W 011°58'1111.4
2017-Mar-10 16:33N 36°02' W 011°44'1111.2
2017-Mar-10 15:34N 36°01' W 011°31'1110.8
2017-Mar-10 14:33N 36°01' W 011°17'1110.8
2017-Mar-10 13:33N 36°01' W 011°04'1110.9
2017-Mar-10 12:33N 36°01' W 010°50'1110.8
2017-Mar-10 11:32N 36°01' W 010°37'1310.7
2017-Mar-10 10:22N 36°01' W 010°21'10810.9
2017-Mar-10 00:30N 35°59' W 008°08'1111.5
2017-Mar-09 23:34N 35°59' W 007°55'1111.1
2017-Mar-09 22:33N 35°59' W 007°41'1111.1
2017-Mar-09 21:34N 35°59' W 007°27'1111.1
2017-Mar-09 20:32N 35°59' W 007°13'7910.6
2017-Mar-09 13:07N 35°58' W 005°36'610.4
2017-Mar-09 12:34N 35°59' W 005°29'9 9.3
2017-Mar-09 11:34N 36°02' W 005°18'39811.0
2017-Mar-07 23:31N 37°09' E 002°51'  
2017-Mar-05 18:33N 36°40' E 013°40'1310.4
2017-Mar-05 17:19N 36°37' E 013°55'810.5
2017-Mar-05 16:33N 36°34' E 014°05'1110.6
2017-Mar-05 15:33N 36°32' E 014°18'1210.7
2017-Mar-05 14:26N 36°28' E 014°32'2310.8
2017-Mar-05 12:18N 36°26' E 015°01'1010.9
2017-Mar-05 11:22N 36°25' E 015°13'  
Track history (hours):
 
Tides and Currents Weather Stations Pressure Air Temp Water Temp Dewpoint Dewpoint Depression Visibility Wind Speed Wind Dir Waves Ship Positions

Genco Loire

Last reported at 2017-Mar-13 23:33 UTC. Time now 2017-Mar-23 18:29 UTC.
Position N 36°20' W 029°22'.
Warning: this ship's position is 9 days out of date.

Length 190 m; draft 10.4 m.

MMSI: 538002760.

Date/timePositionNaut miles runAvg speedWind from/ knotsBaromVisibWave heightAir tempDewpointWater temp
2017-Mar-13 23:33N 36°20' W 029°22'1110.5
2017-Mar-13 22:32N 36°19' W 029°09'1010.2
2017-Mar-13 21:33N 36°19' W 028°56'1310.3
2017-Mar-13 20:20N 36°19' W 028°41'810.6
2017-Mar-13 19:33N 36°18' W 028°30'1110.7
2017-Mar-13 18:32N 36°18' W 028°17'1111.0
2017-Mar-13 17:31N 36°17' W 028°03'1010.6
2017-Mar-13 16:33N 36°17' W 027°50'1110.7
2017-Mar-13 15:33N 36°16' W 027°37'1110.6
2017-Mar-13 14:33N 36°16' W 027°24'1110.8
2017-Mar-13 13:33N 36°16' W 027°11'1010.5
2017-Mar-13 12:33N 36°15' W 026°58'1110.7
2017-Mar-13 11:32N 36°15' W 026°44'1110.7
2017-Mar-13 10:32N 36°14' W 026°31'1010.6
2017-Mar-13 09:34N 36°14' W 026°18'1110.7
2017-Mar-13 08:33N 36°13' W 026°05'1110.9
2017-Mar-13 07:33N 36°13' W 025°51'1111.0
2017-Mar-13 06:33N 36°12' W 025°38'1111.0
2017-Mar-13 05:34N 36°12' W 025°24'1111.2
2017-Mar-13 04:33N 36°11' W 025°10'1110.9
2017-Mar-13 03:33N 36°11' W 024°57'1110.9
2017-Mar-13 02:33N 36°11' W 024°43'1110.8
2017-Mar-13 01:33N 36°11' W 024°30'1110.6
2017-Mar-13 00:33N 36°11' W 024°17'1010.4
2017-Mar-12 23:33N 36°11' W 024°04'1110.6
2017-Mar-12 22:33N 36°10' W 023°51'1110.9
2017-Mar-12 21:33N 36°10' W 023°37'1110.9
2017-Mar-12 20:33N 36°10' W 023°23'1110.7
2017-Mar-12 19:33N 36°10' W 023°10'1010.5
2017-Mar-12 18:33N 36°10' W 022°57'1410.0
2017-Mar-12 17:13N 36°09' W 022°41'4110.6
2017-Mar-12 13:21N 36°09' W 021°50'45910.9
2017-Mar-10 19:15N 36°01' W 012°22'811.0
2017-Mar-10 18:33N 36°02' W 012°13'1111.4
2017-Mar-10 17:34N 36°02' W 011°58'1111.4
2017-Mar-10 16:33N 36°02' W 011°44'1111.2
2017-Mar-10 15:34N 36°01' W 011°31'1110.8
2017-Mar-10 14:33N 36°01' W 011°17'1110.8
2017-Mar-10 13:33N 36°01' W 011°04'1110.9
2017-Mar-10 12:33N 36°01' W 010°50'1110.8
2017-Mar-10 11:32N 36°01' W 010°37'1310.7
2017-Mar-10 10:22N 36°01' W 010°21'10810.9
2017-Mar-10 00:30N 35°59' W 008°08'1111.5
2017-Mar-09 23:34N 35°59' W 007°55'1111.1
2017-Mar-09 22:33N 35°59' W 007°41'1111.1
2017-Mar-09 21:34N 35°59' W 007°27'1111.1
2017-Mar-09 20:32N 35°59' W 007°13'7910.6
2017-Mar-09 13:07N 35°58' W 005°36'610.4
2017-Mar-09 12:34N 35°59' W 005°29'9 9.3
2017-Mar-09 11:34N 36°02' W 005°18'39811.0
2017-Mar-07 23:31N 37°09' E 002°51'  
2017-Mar-05 18:33N 36°40' E 013°40'1310.4
2017-Mar-05 17:19N 36°37' E 013°55'810.5
2017-Mar-05 16:33N 36°34' E 014°05'1110.6
2017-Mar-05 15:33N 36°32' E 014°18'1210.7
2017-Mar-05 14:26N 36°28' E 014°32'2310.8
2017-Mar-05 12:18N 36°26' E 015°01'1010.9
2017-Mar-05 11:22N 36°25' E 015°13'  

Dump ship's entire track history